Time;durP1;ratioP1;P1;durP2;ratioP2;P2;SDS_P1;SDS_P2;PMS_P1;PMS_P2;Temp;Humidity;BMP_temperature;BMP_pressure;BME280_temperature;BME280_humidity;BME280_pressure;Samples;Min_cycle;Max_cycle;Signal;HPM_P1;HPM_P2
2022/11/25 00:01:15;;;;;;;1.83;1.00;;;;;;;;;;5017975;28;20036;-76
2022/11/25 00:03:43;;;;;;;2.10;1.00;;;;;;;;;;5036730;28;20591;-75
2022/11/25 00:06:09;;;;;;;2.20;0.90;;;;;;;;;;5036232;28;20041;-74
2022/11/25 00:08:36;;;;;;;7.57;1.42;;;;;;;;;;5029326;28;20056;-73
2022/11/25 00:11:03;;;;;;;3.28;1.25;;;;;;;;;;5027465;28;20045;-74
2022/11/25 00:13:29;;;;;;;1.95;1.08;;;;;;;;;;5035045;28;20053;-70
2022/11/25 00:15:55;;;;;;;1.63;0.98;;;;;;;;;;5031894;28;20049;-72
2022/11/25 00:18:21;;;;;;;1.63;0.95;;;;;;;;;;5018459;28;20048;-73
2022/11/25 00:20:47;;;;;;;2.47;1.17;;;;;;;;;;5022549;28;20505;-76
2022/11/25 00:23:13;;;;;;;4.03;1.08;;;;;;;;;;5039648;28;20045;-74
2022/11/25 00:25:39;;;;;;;2.20;1.05;;;;;;;;;;5038046;28;20098;-75
2022/11/25 00:28:05;;;;;;;2.20;0.90;;;;;;;;;;5033504;28;20049;-68
2022/11/25 00:30:31;;;;;;;3.30;1.00;;;;;;;;;;5035110;28;20049;-72
2022/11/25 00:32:57;;;;;;;2.17;1.13;;;;;;;;;;5034007;28;20057;-73
2022/11/25 00:35:23;;;;;;;1.48;1.00;;;;;;;;;;5034408;28;20478;-76
2022/11/25 00:37:49;;;;;;;1.98;1.00;;;;;;;;;;5038014;28;20053;-74
2022/11/25 00:40:15;;;;;;;3.42;1.00;;;;;;;;;;5034378;28;20044;-77
2022/11/25 00:45:25;;;;;;;2.53;1.10;;;;;;;;;;5034733;28;20049;-77
2022/11/25 00:47:52;;;;;;;1.65;1.00;;;;;;;;;;5038166;28;20052;-73
2022/11/25 00:50:18;;;;;;;5.30;1.27;;;;;;;;;;5016121;28;20183;-80
2022/11/25 00:52:44;;;;;;;2.35;1.08;;;;;;;;;;5036376;28;20577;-75
2022/11/25 00:55:10;;;;;;;1.95;1.00;;;;;;;;;;5015226;28;20060;-69
2022/11/25 00:57:36;;;;;;;1.20;0.90;;;;;;;;;;5040462;28;20063;-71
2022/11/25 01:00:03;;;;;;;4.75;1.25;;;;;;;;;;5032789;28;20626;-72
2022/11/25 01:02:29;;;;;;;2.58;1.10;;;;;;;;;;5036724;28;20052;-71
2022/11/25 01:04:55;;;;;;;1.65;1.00;;;;;;;;;;5036849;28;20045;-72
2022/11/25 01:07:21;;;;;;;1.88;0.90;;;;;;;;;;5036265;28;20053;-73
2022/11/25 01:09:48;;;;;;;2.67;0.90;;;;;;;;;;5036139;28;20485;-71
2022/11/25 01:12:14;;;;;;;3.50;1.00;;;;;;;;;;5043991;28;20051;-77
2022/11/25 01:14:40;;;;;;;1.63;1.00;;;;;;;;;;5035936;28;20049;-72
2022/11/25 01:17:06;;;;;;;1.98;1.20;;;;;;;;;;5034308;28;20033;-69
2022/11/25 01:19:32;;;;;;;3.80;1.10;;;;;;;;;;5031677;28;20068;-72
2022/11/25 01:21:58;;;;;;;3.03;1.00;;;;;;;;;;5015824;28;20072;-70
2022/11/25 01:24:25;;;;;;;3.28;1.15;;;;;;;;;;5036322;28;20869;-72
2022/11/25 01:26:53;;;;;;;2.05;1.15;;;;;;;;;;5033433;28;20064;-72
2022/11/25 01:29:19;;;;;;;2.30;1.00;;;;;;;;;;5032683;28;20139;-74
2022/11/25 01:31:46;;;;;;;2.85;1.00;;;;;;;;;;5034406;28;20048;-71
2022/11/25 01:34:17;;;;;;;2.95;1.30;;;;;;;;;;5038308;28;20107;-71
2022/11/25 01:36:44;;;;;;;4.15;1.00;;;;;;;;;;5037436;28;20049;-76
2022/11/25 01:39:19;;;;;;;5.07;1.20;;;;;;;;;;5033387;28;20045;-74
2022/11/25 01:41:47;;;;;;;2.30;0.90;;;;;;;;;;5034392;28;20058;-75
2022/11/25 01:44:21;;;;;;;1.10;0.90;;;;;;;;;;5033557;28;20151;-73
2022/11/25 01:47:02;;;;;;;2.85;1.23;;;;;;;;;;5033419;28;20048;-70
2022/11/25 01:49:58;;;;;;;3.15;1.10;;;;;;;;;;5029037;28;20152;-69
2022/11/25 01:52:28;;;;;;;2.85;1.10;;;;;;;;;;5033319;28;20561;-71
2022/11/25 01:55:00;;;;;;;2.28;1.15;;;;;;;;;;5030996;28;20049;-72
2022/11/25 01:57:47;;;;;;;2.30;1.05;;;;;;;;;;5034181;28;20941;-77
2022/11/25 02:00:14;;;;;;;1.33;0.95;;;;;;;;;;5034071;28;20066;-69
2022/11/25 02:02:40;;;;;;;3.20;1.02;;;;;;;;;;5032464;28;20052;-71
2022/11/25 02:05:09;;;;;;;3.45;1.38;;;;;;;;;;5032730;28;20512;-73
2022/11/25 02:07:37;;;;;;;1.70;1.17;;;;;;;;;;5034168;28;20140;-69
2022/11/25 02:10:07;;;;;;;2.40;0.98;;;;;;;;;;5034669;28;20071;-73
2022/11/25 02:12:35;;;;;;;5.15;1.15;;;;;;;;;;5038035;28;20053;-70
2022/11/25 02:15:02;;;;;;;2.78;1.15;;;;;;;;;;5035702;28;20146;-71
2022/11/25 02:17:28;;;;;;;3.38;0.95;;;;;;;;;;5034850;28;20052;-72
2022/11/25 02:20:08;;;;;;;1.92;0.90;;;;;;;;;;5031738;28;20064;-71
2022/11/25 02:22:52;;;;;;;3.67;1.33;;;;;;;;;;5034943;28;20114;-72
2022/11/25 02:25:20;;;;;;;2.50;1.05;;;;;;;;;;5035993;28;20057;-73
2022/11/25 02:27:50;;;;;;;2.05;1.10;;;;;;;;;;5032459;28;20044;-77
2022/11/25 02:30:17;;;;;;;3.38;1.20;;;;;;;;;;5029047;28;20056;-78
2022/11/25 02:32:44;;;;;;;2.78;1.10;;;;;;;;;;4998521;28;20057;-71
2022/11/25 02:35:46;;;;;;;1.58;1.02;;;;;;;;;;5031146;28;20063;-69
2022/11/25 02:38:31;;;;;;;5.57;1.40;;;;;;;;;;5021942;28;20057;-69
2022/11/25 02:41:04;;;;;;;4.72;1.00;;;;;;;;;;5033918;28;20051;-74
2022/11/25 02:43:29;;;;;;;1.95;1.10;;;;;;;;;;5027569;28;20119;-72
2022/11/25 02:46:02;;;;;;;2.10;0.90;;;;;;;;;;5034624;28;20049;-70
2022/11/25 02:48:30;;;;;;;2.78;1.10;;;;;;;;;;5036024;28;20810;-72
2022/11/25 02:50:57;;;;;;;4.93;1.17;;;;;;;;;;5033890;28;20068;-73
2022/11/25 02:53:23;;;;;;;2.40;0.90;;;;;;;;;;5031251;28;20955;-70
2022/11/25 02:55:50;;;;;;;4.30;1.10;;;;;;;;;;5037055;28;20049;-73
2022/11/25 02:58:16;;;;;;;3.88;0.98;;;;;;;;;;5032162;28;20409;-71
2022/11/25 03:00:44;;;;;;;2.65;0.95;;;;;;;;;;5035154;28;20076;-68
2022/11/25 03:03:10;;;;;;;4.53;1.20;;;;;;;;;;5030675;28;20235;-71
2022/11/25 03:05:37;;;;;;;3.47;1.10;;;;;;;;;;5034653;28;20714;-70
2022/11/25 03:08:03;;;;;;;4.25;1.20;;;;;;;;;;5036456;28;20172;-75
2022/11/25 03:10:30;;;;;;;2.20;1.10;;;;;;;;;;5030436;28;20048;-73
2022/11/25 03:12:56;;;;;;;2.08;1.10;;;;;;;;;;5015498;28;20302;-75
2022/11/25 03:15:22;;;;;;;4.60;1.02;;;;;;;;;;5033957;28;20056;-73
2022/11/25 03:17:49;;;;;;;2.80;1.30;;;;;;;;;;5034450;28;20048;-77
2022/11/25 03:20:16;;;;;;;5.32;1.23;;;;;;;;;;5033665;28;20064;-72
2022/11/25 03:22:42;;;;;;;4.32;1.00;;;;;;;;;;5040553;28;20489;-72
2022/11/25 03:25:10;;;;;;;3.60;1.30;;;;;;;;;;5038598;28;20519;-69
2022/11/25 03:27:37;;;;;;;4.75;1.50;;;;;;;;;;5038145;28;20056;-68
2022/11/25 03:30:07;;;;;;;2.45;1.15;;;;;;;;;;5040014;28;20472;-73
2022/11/25 03:32:32;;;;;;;2.67;1.15;;;;;;;;;;5035125;28;20461;-73
2022/11/25 03:34:58;;;;;;;2.35;1.20;;;;;;;;;;5050437;28;20056;-70
2022/11/25 03:37:24;;;;;;;4.50;1.13;;;;;;;;;;5037653;28;20088;-74
2022/11/25 03:39:50;;;;;;;3.78;1.20;;;;;;;;;;5031805;28;20158;-70
2022/11/25 03:42:16;;;;;;;4.43;1.35;;;;;;;;;;5037649;28;20498;-68
2022/11/25 03:44:42;;;;;;;4.55;1.45;;;;;;;;;;5039763;28;20056;-69
2022/11/25 03:47:08;;;;;;;7.00;1.60;;;;;;;;;;5037498;28;20505;-73
2022/11/25 03:49:34;;;;;;;3.17;1.30;;;;;;;;;;5033991;28;20049;-71
2022/11/25 03:52:00;;;;;;;2.70;1.60;;;;;;;;;;5040636;28;20045;-69
2022/11/25 03:54:26;;;;;;;2.88;1.30;;;;;;;;;;5037962;28;20057;-77
2022/11/25 03:56:52;;;;;;;2.20;1.10;;;;;;;;;;5038685;28;20244;-73
2022/11/25 03:59:18;;;;;;;3.28;1.58;;;;;;;;;;5030985;28;20864;-73
2022/11/25 04:01:44;;;;;;;3.90;1.38;;;;;;;;;;5032652;28;20044;-70
2022/11/25 04:04:10;;;;;;;2.92;1.20;;;;;;;;;;5035746;28;20478;-73
2022/11/25 04:06:38;;;;;;;5.93;1.50;;;;;;;;;;5036608;28;20045;-71
2022/11/25 04:09:06;;;;;;;6.10;1.38;;;;;;;;;;5027270;28;20076;-70
2022/11/25 04:14:16;;;;;;;;;;;;;;;;;;5036744;28;20045;-73
2022/11/25 04:16:42;;;;;;;4.07;1.40;;;;;;;;;;5036170;28;19928;-74
2022/11/25 04:19:08;;;;;;;2.38;1.35;;;;;;;;;;5033003;28;20505;-71
2022/11/25 04:21:34;;;;;;;3.28;1.30;;;;;;;;;;5030893;28;20057;-70
2022/11/25 04:24:00;;;;;;;4.03;1.17;;;;;;;;;;5021352;28;20056;-72
2022/11/25 04:26:26;;;;;;;3.65;1.08;;;;;;;;;;5005269;28;20146;-80
2022/11/25 04:28:52;;;;;;;3.83;1.30;;;;;;;;;;5028502;28;20045;-75
2022/11/25 04:31:18;;;;;;;6.30;1.48;;;;;;;;;;5029421;28;20046;-72
2022/11/25 04:33:44;;;;;;;3.92;1.40;;;;;;;;;;5033366;28;20052;-71
2022/11/25 04:36:10;;;;;;;5.63;1.38;;;;;;;;;;5029585;28;20262;-75
2022/11/25 04:38:36;;;;;;;3.13;1.23;;;;;;;;;;5033782;28;20052;-70
2022/11/25 04:41:02;;;;;;;3.13;1.17;;;;;;;;;;5033041;28;20095;-76
2022/11/25 04:43:28;;;;;;;3.60;1.20;;;;;;;;;;5032839;28;20103;-70
2022/11/25 04:45:54;;;;;;;2.33;1.17;;;;;;;;;;5028937;28;20167;-70
2022/11/25 04:48:20;;;;;;;4.85;1.35;;;;;;;;;;5031985;28;20060;-70
2022/11/25 04:50:46;;;;;;;6.13;1.17;;;;;;;;;;5035423;28;20040;-72
2022/11/25 04:53:12;;;;;;;4.30;1.30;;;;;;;;;;5018550;28;20064;-75
2022/11/25 04:55:38;;;;;;;3.22;1.30;;;;;;;;;;5032138;28;20045;-70
2022/11/25 04:58:04;;;;;;;5.15;1.20;;;;;;;;;;5034440;28;20075;-69
2022/11/25 05:00:30;;;;;;;6.93;1.33;;;;;;;;;;5029703;28;20048;-69
2022/11/25 05:02:55;;;;;;;3.58;1.17;;;;;;;;;;5029470;28;20139;-77
2022/11/25 05:05:22;;;;;;;3.95;1.10;;;;;;;;;;5032783;28;20136;-72
2022/11/25 05:07:47;;;;;;;5.00;1.30;;;;;;;;;;5019414;28;20151;-75
2022/11/25 05:10:13;;;;;;;4.10;1.50;;;;;;;;;;5027657;28;20061;-72
2022/11/25 05:12:40;;;;;;;5.53;1.48;;;;;;;;;;5033314;28;20107;-73
2022/11/25 05:15:07;;;;;;;4.07;1.30;;;;;;;;;;5037729;28;20190;-69
2022/11/25 05:17:33;;;;;;;3.40;1.50;;;;;;;;;;5033044;28;20043;-70
2022/11/25 05:20:00;;;;;;;9.68;1.40;;;;;;;;;;5011109;28;20502;-73
2022/11/25 05:22:29;;;;;;;3.15;1.48;;;;;;;;;;5034036;28;20049;-75
2022/11/25 05:24:56;;;;;;;6.18;1.20;;;;;;;;;;5035512;28;20048;-70
2022/11/25 05:27:23;;;;;;;3.42;1.40;;;;;;;;;;5038025;28;20049;-71
2022/11/25 05:29:49;;;;;;;3.35;1.30;;;;;;;;;;5033333;28;20048;-73
2022/11/25 05:32:16;;;;;;;6.25;1.15;;;;;;;;;;5028330;28;20106;-73
2022/11/25 05:34:42;;;;;;;3.88;1.40;;;;;;;;;;5032126;28;20063;-68
2022/11/25 05:37:09;;;;;;;7.57;1.63;;;;;;;;;;5009535;28;20048;-69
2022/11/25 05:39:35;;;;;;;7.43;1.40;;;;;;;;;;5029626;28;20059;-69
2022/11/25 05:42:01;;;;;;;4.07;1.40;;;;;;;;;;5031660;28;20053;-73
2022/11/25 05:44:27;;;;;;;4.60;1.45;;;;;;;;;;5031736;28;20099;-70
2022/11/25 05:46:53;;;;;;;6.32;1.52;;;;;;;;;;5025798;28;20048;-70
2022/11/25 05:49:19;;;;;;;4.28;1.58;;;;;;;;;;5029711;28;20269;-70
2022/11/25 05:51:46;;;;;;;4.38;1.35;;;;;;;;;;5035586;28;20063;-73
2022/11/25 05:54:12;;;;;;;4.70;1.58;;;;;;;;;;5036937;28;20111;-71
2022/11/25 05:56:38;;;;;;;4.18;1.60;;;;;;;;;;5029272;28;20064;-71
2022/11/25 05:59:05;;;;;;;4.25;1.55;;;;;;;;;;5031533;28;20053;-71
2022/11/25 06:01:32;;;;;;;3.40;1.20;;;;;;;;;;5032990;28;20132;-74
2022/11/25 06:04:03;;;;;;;5.93;1.48;;;;;;;;;;5035922;28;20422;-76
2022/11/25 06:06:30;;;;;;;6.63;1.50;;;;;;;;;;5026722;28;20141;-70
2022/11/25 06:08:56;;;;;;;4.03;1.80;;;;;;;;;;5030758;28;20463;-74
2022/11/25 06:11:24;;;;;;;5.90;1.80;;;;;;;;;;5016299;28;20793;-76
2022/11/25 06:13:50;;;;;;;3.47;1.50;;;;;;;;;;5040235;28;20041;-73
2022/11/25 06:16:18;;;;;;;4.63;1.40;;;;;;;;;;5012678;28;20109;-74
2022/11/25 06:18:45;;;;;;;6.00;1.70;;;;;;;;;;5033764;28;20052;-71
2022/11/25 06:21:11;;;;;;;6.57;1.60;;;;;;;;;;5039393;28;20064;-73
2022/11/25 06:23:38;;;;;;;3.17;1.50;;;;;;;;;;5040565;28;20083;-69
2022/11/25 06:26:22;;;;;;;12.32;2.20;;;;;;;;;;5031582;28;20667;-71
2022/11/25 06:28:52;;;;;;;4.90;2.65;;;;;;;;;;5032070;28;20057;-78
2022/11/25 06:31:21;;;;;;;7.93;1.60;;;;;;;;;;5031658;28;20120;-75
2022/11/25 06:33:50;;;;;;;6.45;1.95;;;;;;;;;;5036181;28;20540;-75
2022/11/25 06:36:16;;;;;;;5.60;1.80;;;;;;;;;;5027349;28;20052;-75
2022/11/25 06:38:48;;;;;;;6.90;1.80;;;;;;;;;;5034119;28;20092;-71
2022/11/25 06:41:15;;;;;;;3.17;1.55;;;;;;;;;;5040195;28;20481;-74
2022/11/25 06:43:41;;;;;;;5.20;1.92;;;;;;;;;;5033867;28;20157;-69
2022/11/25 06:46:10;;;;;;;5.63;2.00;;;;;;;;;;5034782;28;20143;-72
2022/11/25 06:48:36;;;;;;;7.85;2.35;;;;;;;;;;5038651;28;20053;-72
2022/11/25 06:51:05;;;;;;;3.83;1.80;;;;;;;;;;5019989;28;20057;-70
2022/11/25 06:53:32;;;;;;;5.15;2.08;;;;;;;;;;5033626;28;20307;-71
2022/11/25 06:56:15;;;;;;;7.78;1.90;;;;;;;;;;5035002;28;20048;-72
2022/11/25 06:58:43;;;;;;;9.45;2.08;;;;;;;;;;5029146;28;20698;-71
2022/11/25 07:01:23;;;;;;;5.03;2.05;;;;;;;;;;5027273;28;20144;-71
2022/11/25 07:03:52;;;;;;;7.03;2.20;;;;;;;;;;5032107;28;20052;-74
2022/11/25 07:06:19;;;;;;;5.13;2.08;;;;;;;;;;5029232;28;20072;-69
2022/11/25 07:08:46;;;;;;;5.97;1.98;;;;;;;;;;5030586;28;20103;-75
2022/11/25 07:11:17;;;;;;;3.30;1.98;;;;;;;;;;5033084;28;20088;-70
2022/11/25 07:13:43;;;;;;;7.60;2.42;;;;;;;;;;5032104;28;20261;-71
2022/11/25 07:16:10;;;;;;;8.65;2.80;;;;;;;;;;5036628;28;20032;-70
2022/11/25 07:18:38;;;;;;;8.40;3.10;;;;;;;;;;5033656;28;21565;-73
2022/11/25 07:21:13;;;;;;;9.00;2.65;;;;;;;;;;5026464;28;20831;-70
2022/11/25 07:23:39;;;;;;;;;;;;;;;;;;5031176;28;20048;-73
2022/11/25 07:26:15;;;;;;;10.82;2.00;;;;;;;;;;5027236;28;19959;-75
2022/11/25 07:28:42;;;;;;;6.40;2.15;;;;;;;;;;5032625;28;20294;-74
2022/11/25 07:31:14;;;;;;;10.80;2.20;;;;;;;;;;5032557;28;20052;-71
2022/11/25 07:33:40;;;;;;;10.30;2.15;;;;;;;;;;5036540;28;20052;-71
2022/11/25 07:36:09;;;;;;;5.50;1.85;;;;;;;;;;5013058;28;20118;-73
2022/11/25 07:38:36;;;;;;;7.45;1.90;;;;;;;;;;5035991;28;20049;-75
2022/11/25 07:41:09;;;;;;;7.20;1.98;;;;;;;;;;5033619;28;20052;-78
2022/11/25 07:43:36;;;;;;;4.25;1.63;;;;;;;;;;5033493;28;20072;-73
2022/11/25 07:46:13;;;;;;;5.85;1.80;;;;;;;;;;5029167;28;20447;-78
2022/11/25 07:48:40;;;;;;;5.88;1.98;;;;;;;;;;5028961;28;20719;-73
2022/11/25 07:51:22;;;;;;;4.72;1.70;;;;;;;;;;5033420;28;20060;-71
2022/11/25 07:53:49;;;;;;;6.95;2.22;;;;;;;;;;5036799;28;20048;-73
2022/11/25 07:56:15;;;;;;;9.07;2.00;;;;;;;;;;5037939;28;20210;-71
2022/11/25 07:58:43;;;;;;;4.78;1.77;;;;;;;;;;5033195;28;20063;-76
2022/11/25 08:01:10;;;;;;;6.75;2.05;;;;;;;;;;5031563;28;20045;-75
2022/11/25 08:03:39;;;;;;;4.95;2.20;;;;;;;;;;5034287;28;20144;-76
2022/11/25 08:06:08;;;;;;;4.50;2.25;;;;;;;;;;5030274;28;20502;-71
2022/11/25 08:08:35;;;;;;;7.95;2.30;;;;;;;;;;5035654;28;20102;-77
2022/11/25 08:11:06;;;;;;;6.18;1.95;;;;;;;;;;5037131;28;20063;-77
2022/11/25 08:13:32;;;;;;;4.88;1.98;;;;;;;;;;5030350;28;20056;-72
2022/11/25 08:15:59;;;;;;;4.07;2.20;;;;;;;;;;5035799;28;20063;-75
2022/11/25 08:18:26;;;;;;;5.50;1.73;;;;;;;;;;5031489;28;20122;-75
2022/11/25 08:20:51;;;;;;;9.02;1.90;;;;;;;;;;5032953;28;20518;-76
2022/11/25 08:23:17;;;;;;;9.40;2.17;;;;;;;;;;5034798;28;20079;-70
2022/11/25 08:25:43;;;;;;;5.93;2.05;;;;;;;;;;5033871;28;20045;-73
2022/11/25 08:28:09;;;;;;;6.50;1.90;;;;;;;;;;5027968;28;20052;-73
2022/11/25 08:30:35;;;;;;;4.15;1.70;;;;;;;;;;5033453;28;20049;-71
2022/11/25 08:33:03;;;;;;;6.05;1.80;;;;;;;;;;5023545;28;20056;-77
2022/11/25 08:35:30;;;;;;;3.83;1.73;;;;;;;;;;5035997;28;20733;-73
2022/11/25 08:37:56;;;;;;;9.02;1.83;;;;;;;;;;5034231;28;20049;-80
2022/11/25 08:40:22;;;;;;;4.47;1.90;;;;;;;;;;5035448;28;20045;-70
2022/11/25 08:42:48;;;;;;;4.38;1.70;;;;;;;;;;5021123;28;20153;-74
2022/11/25 08:45:14;;;;;;;5.13;1.77;;;;;;;;;;5037506;28;20052;-73
2022/11/25 08:47:40;;;;;;;5.50;1.92;;;;;;;;;;5038868;28;20037;-77
2022/11/25 08:50:08;;;;;;;5.63;2.13;;;;;;;;;;5031934;28;20049;-70
2022/11/25 08:52:35;;;;;;;5.95;1.75;;;;;;;;;;5038657;28;20061;-76
2022/11/25 08:55:00;;;;;;;6.22;1.63;;;;;;;;;;5020318;28;20399;-80
2022/11/25 08:57:26;;;;;;;4.75;1.70;;;;;;;;;;5036163;28;20051;-70
2022/11/25 08:59:52;;;;;;;6.15;1.92;;;;;;;;;;5036096;28;20044;-72
2022/11/25 09:02:18;;;;;;;7.35;1.88;;;;;;;;;;5029891;28;20064;-70
2022/11/25 09:04:44;;;;;;;7.65;2.20;;;;;;;;;;5041094;28;20045;-71
2022/11/25 09:07:11;;;;;;;12.15;2.10;;;;;;;;;;5034122;28;20218;-74
2022/11/25 09:09:36;;;;;;;10.48;2.05;;;;;;;;;;5035913;28;20091;-71
2022/11/25 09:12:03;;;;;;;5.45;1.80;;;;;;;;;;5039011;28;20048;-74
2022/11/25 09:14:28;;;;;;;3.80;1.75;;;;;;;;;;5036649;28;20049;-75
2022/11/25 09:16:55;;;;;;;3.65;1.67;;;;;;;;;;5025125;28;20101;-73
2022/11/25 09:19:22;;;;;;;3.03;1.75;;;;;;;;;;5029411;28;20158;-74
2022/11/25 09:21:48;;;;;;;4.25;1.60;;;;;;;;;;5036175;28;20037;-72
2022/11/25 09:24:14;;;;;;;3.72;1.80;;;;;;;;;;5041296;28;20052;-73
2022/11/25 09:26:41;;;;;;;4.22;1.85;;;;;;;;;;5035224;28;20076;-71
2022/11/25 09:29:07;;;;;;;7.75;1.80;;;;;;;;;;5032506;28;20053;-72
2022/11/25 09:31:33;;;;;;;6.03;2.53;;;;;;;;;;5037397;28;20057;-74
2022/11/25 09:33:59;;;;;;;6.55;1.77;;;;;;;;;;5038462;28;20059;-73
2022/11/25 09:36:25;;;;;;;4.57;1.35;;;;;;;;;;5037099;28;20057;-74
2022/11/25 09:38:51;;;;;;;4.40;1.90;;;;;;;;;;5018224;28;20040;-73
2022/11/25 09:47:56;;;;;;;5.10;1.65;;;;;;;;;;5036240;28;20045;-74
2022/11/25 09:50:53;;;;;;;4.68;1.60;;;;;;;;;;5035852;28;20060;-74
2022/11/25 09:53:37;;;;;;;2.33;1.58;;;;;;;;;;5038886;28;21433;-68
2022/11/25 09:56:07;;;;;;;3.85;1.65;;;;;;;;;;5033669;28;20142;-69
2022/11/25 09:58:39;;;;;;;6.32;1.80;;;;;;;;;;5030550;28;20059;-69
2022/11/25 10:01:11;;;;;;;3.95;1.40;;;;;;;;;;5037006;28;20641;-75
2022/11/25 10:03:52;;;;;;;6.25;1.80;;;;;;;;;;5042342;28;20386;-69
2022/11/25 10:06:18;;;;;;;8.07;1.90;;;;;;;;;;5037557;28;20082;-74
2022/11/25 10:08:51;;;;;;;9.52;2.00;;;;;;;;;;5035519;28;21512;-69
2022/11/25 10:11:29;;;;;;;4.95;2.10;;;;;;;;;;5034903;28;20052;-69
2022/11/25 10:14:16;;;;;;;7.40;3.00;;;;;;;;;;5039277;28;20130;-74
2022/11/25 10:17:16;;;;;;;7.63;2.97;;;;;;;;;;5029280;28;20176;-73
2022/11/25 10:20:06;;;;;;;4.97;2.53;;;;;;;;;;5029950;28;20065;-74
2022/11/25 10:22:40;;;;;;;4.57;2.03;;;;;;;;;;5033839;28;20048;-79
2022/11/25 10:25:28;;;;;;;5.97;2.00;;;;;;;;;;5041783;28;20155;-71
2022/11/25 10:27:58;;;;;;;7.22;2.25;;;;;;;;;;5034076;28;20147;-72
2022/11/25 10:30:37;;;;;;;3.85;1.88;;;;;;;;;;5032838;28;20045;-70
2022/11/25 10:33:20;;;;;;;4.90;2.00;;;;;;;;;;5031111;28;20094;-77
2022/11/25 10:36:14;;;;;;;5.45;2.17;;;;;;;;;;5034578;28;20382;-72
2022/11/25 10:38:49;;;;;;;2.77;2.00;;;;;;;;;;5036138;28;20773;-77
2022/11/25 10:41:19;;;;;;;3.45;1.80;;;;;;;;;;5037674;28;20305;-72
2022/11/25 10:43:46;;;;;;;4.60;2.00;;;;;;;;;;5016468;28;20087;-70
2022/11/25 10:46:34;;;;;;;8.20;2.60;;;;;;;;;;5036978;28;21090;-74
2022/11/25 10:49:07;;;;;;;5.15;1.75;;;;;;;;;;5029492;28;20312;-75
2022/11/25 10:51:36;;;;;;;4.70;2.00;;;;;;;;;;5032421;28;20698;-77
2022/11/25 10:54:15;;;;;;;5.97;2.03;;;;;;;;;;5037263;28;20052;-74
2022/11/25 10:56:47;;;;;;;3.80;1.50;;;;;;;;;;5035866;28;20110;-71
2022/11/25 10:59:33;;;;;;;3.40;1.40;;;;;;;;;;5032270;28;20135;-71
2022/11/25 11:02:22;;;;;;;4.95;1.55;;;;;;;;;;5038115;28;20048;-71
2022/11/25 11:05:01;;;;;;;2.97;1.35;;;;;;;;;;5037005;28;20489;-71
2022/11/25 11:08:05;;;;;;;3.75;1.48;;;;;;;;;;5035798;28;20049;-73
2022/11/25 11:10:31;;;;;;;3.75;1.20;;;;;;;;;;5035525;28;20216;-80
2022/11/25 11:12:59;;;;;;;5.47;1.45;;;;;;;;;;5034034;28;20080;-74
2022/11/25 11:15:40;;;;;;;2.25;1.10;;;;;;;;;;5034438;28;20053;-69
2022/11/25 11:18:51;;;;;;;3.83;0.77;;;;;;;;;;5030054;28;20710;-72
2022/11/25 11:21:28;;;;;;;1.20;0.65;;;;;;;;;;5035064;28;20078;-71
2022/11/25 11:23:55;;;;;;;1.25;0.80;;;;;;;;;;5029384;28;20049;-69
2022/11/25 11:26:31;;;;;;;1.98;1.00;;;;;;;;;;5036203;28;20045;-72
2022/11/25 11:29:12;;;;;;;5.07;1.02;;;;;;;;;;5034386;28;20045;-76
2022/11/25 11:31:44;;;;;;;3.78;0.95;;;;;;;;;;5017303;28;20485;-77
2022/11/25 11:34:28;;;;;;;6.07;0.90;;;;;;;;;;5030892;28;20075;-72
2022/11/25 11:37:05;;;;;;;1.57;0.87;;;;;;;;;;5024598;28;20061;-73
2022/11/25 11:40:02;;;;;;;3.60;0.73;;;;;;;;;;5029832;28;20044;-79
2022/11/25 11:42:33;;;;;;;4.45;1.10;;;;;;;;;;5033583;28;20041;-71
2022/11/25 11:45:12;;;;;;;3.45;0.90;;;;;;;;;;5033111;28;20135;-79
2022/11/25 11:48:04;;;;;;;2.53;0.68;;;;;;;;;;5038787;28;20075;-73
2022/11/25 11:51:01;;;;;;;2.58;0.82;;;;;;;;;;5036846;28;20052;-75
2022/11/25 11:53:36;;;;;;;3.58;1.00;;;;;;;;;;4997446;28;20044;-78
2022/11/25 11:56:08;;;;;;;4.03;1.38;;;;;;;;;;5035523;28;20075;-77
2022/11/25 11:58:56;;;;;;;3.15;1.10;;;;;;;;;;5037492;28;20573;-77
2022/11/25 12:01:39;;;;;;;3.92;1.13;;;;;;;;;;5039829;28;20387;-77
2022/11/25 12:04:19;;;;;;;1.63;1.00;;;;;;;;;;5036912;28;20049;-72
2022/11/25 12:07:06;;;;;;;4.22;1.02;;;;;;;;;;5039877;28;20122;-74
2022/11/25 12:09:42;;;;;;;2.05;1.27;;;;;;;;;;5038630;28;20064;-78
2022/11/25 12:12:15;;;;;;;6.30;1.45;;;;;;;;;;5039997;28;20060;-80
2022/11/25 12:14:54;;;;;;;5.82;1.30;;;;;;;;;;5039856;28;20045;-77
2022/11/25 12:17:33;;;;;;;2.88;0.90;;;;;;;;;;5041149;28;20052;-76
2022/11/25 12:20:07;;;;;;;2.92;0.95;;;;;;;;;;5030129;28;20061;-73
2022/11/25 12:22:46;;;;;;;1.50;0.77;;;;;;;;;;5029766;28;20044;-75
2022/11/25 12:25:42;;;;;;;2.42;0.80;;;;;;;;;;5039767;28;20137;-71
2022/11/25 12:28:17;;;;;;;1.88;1.05;;;;;;;;;;5030215;28;20596;-80
2022/11/25 12:31:23;;;;;;;1.77;1.15;;;;;;;;;;5038940;28;20473;-71
2022/11/25 12:34:12;;;;;;;3.53;1.50;;;;;;;;;;5039345;28;20049;-68
2022/11/25 12:36:40;;;;;;;6.07;2.75;;;;;;;;;;4959039;28;20050;-71
2022/11/25 12:39:30;;;;;;;10.75;3.20;;;;;;;;;;4961902;28;20164;-76
2022/11/25 12:42:02;;;;;;;12.10;3.10;;;;;;;;;;4963488;28;20077;-73
2022/11/25 12:44:33;;;;;;;8.60;3.10;;;;;;;;;;4962986;28;20054;-70
2022/11/25 12:47:00;;;;;;;9.10;3.67;;;;;;;;;;4966249;28;20130;-68
2022/11/25 12:49:33;;;;;;;6.97;2.90;;;;;;;;;;4962948;28;20085;-73
2022/11/25 12:52:17;;;;;;;8.25;3.63;;;;;;;;;;4961924;28;20058;-72
2022/11/25 12:55:04;;;;;;;10.23;4.07;;;;;;;;;;4964941;28;20065;-68
2022/11/25 12:57:39;;;;;;;9.35;4.00;;;;;;;;;;4966415;28;20066;-68
2022/11/25 13:00:32;;;;;;;15.55;3.72;;;;;;;;;;4959726;28;20058;-76
2022/11/25 13:03:16;;;;;;;18.67;6.82;;;;;;;;;;4960586;28;20566;-76
2022/11/25 13:05:48;;;;;;;10.90;4.80;;;;;;;;;;4961299;28;20058;-71
2022/11/25 13:08:20;;;;;;;11.00;3.60;;;;;;;;;;4963183;28;20562;-70
2022/11/25 13:11:11;;;;;;;12.13;3.67;;;;;;;;;;4965289;28;20055;-68
2022/11/25 13:13:48;;;;;;;16.02;5.80;;;;;;;;;;4995912;28;20052;-72
2022/11/25 13:16:14;;;;;;;11.05;3.70;;;;;;;;;;5020915;28;20044;-69
2022/11/25 13:18:43;;;;;;;10.85;3.60;;;;;;;;;;5035553;28;20055;-74
2022/11/25 13:21:14;;;;;;;14.98;5.35;;;;;;;;;;5035404;28;20213;-72
2022/11/25 13:23:48;;;;;;;8.82;3.25;;;;;;;;;;5036219;28;20074;-70
2022/11/25 13:26:31;;;;;;;7.63;3.20;;;;;;;;;;5035371;28;20134;-74
2022/11/25 13:28:58;;;;;;;6.45;3.15;;;;;;;;;;5033689;28;20098;-74
2022/11/25 13:31:31;;;;;;;8.93;3.40;;;;;;;;;;5030098;28;20045;-73
2022/11/25 13:33:57;;;;;;;9.65;3.20;;;;;;;;;;5037049;28;20169;-74
2022/11/25 13:36:41;;;;;;;11.48;3.38;;;;;;;;;;5036223;28;20052;-75
2022/11/25 13:39:13;;;;;;;10.75;3.15;;;;;;;;;;5040356;28;20103;-71
2022/11/25 13:41:44;;;;;;;8.93;3.45;;;;;;;;;;5042096;28;20055;-77
2022/11/25 13:44:21;;;;;;;9.43;4.03;;;;;;;;;;5036749;28;20132;-76
2022/11/25 13:46:51;;;;;;;8.88;3.80;;;;;;;;;;5033817;28;20523;-74
2022/11/25 13:49:34;;;;;;;7.43;3.47;;;;;;;;;;5035462;28;20183;-75
2022/11/25 13:52:21;;;;;;;8.85;3.33;;;;;;;;;;5033284;28;20125;-82
2022/11/25 13:54:54;;;;;;;7.15;2.70;;;;;;;;;;5034051;28;20049;-73
2022/11/25 13:57:33;;;;;;;11.40;2.58;;;;;;;;;;5036245;28;20057;-75
2022/11/25 14:00:27;;;;;;;5.78;2.28;;;;;;;;;;5035723;28;20052;-80
2022/11/25 14:02:53;;;;;;;3.33;1.58;;;;;;;;;;5035256;28;20045;-69
2022/11/25 14:05:19;;;;;;;5.10;1.50;;;;;;;;;;5038226;28;20121;-77
2022/11/25 14:08:16;;;;;;;8.25;1.30;;;;;;;;;;5013664;28;20206;-72
2022/11/25 14:11:11;;;;;;;3.15;1.10;;;;;;;;;;5019119;28;20147;-72
2022/11/25 14:14:13;;;;;;;2.97;1.30;;;;;;;;;;5013006;28;20048;-74
2022/11/25 14:17:00;;;;;;;18.10;1.50;;;;;;;;;;5017216;28;20550;-71
2022/11/25 14:19:29;;;;;;;2.15;1.17;;;;;;;;;;4977579;28;1575540;-73
2022/11/25 14:22:23;;;;;;;3.78;1.38;;;;;;;;;;5032155;28;20878;-75
2022/11/25 14:24:53;;;;;;;4.80;1.20;;;;;;;;;;5039634;28;20060;-73
2022/11/25 14:27:32;;;;;;;3.88;1.08;;;;;;;;;;5036663;28;20131;-73
2022/11/25 14:30:02;;;;;;;4.13;0.90;;;;;;;;;;5032562;28;20072;-71
2022/11/25 14:32:37;;;;;;;5.75;0.90;;;;;;;;;;5028604;28;20052;-70
2022/11/25 14:35:23;;;;;;;4.28;1.00;;;;;;;;;;5034821;28;20059;-72
2022/11/25 14:37:57;;;;;;;3.38;1.23;;;;;;;;;;5033862;28;20045;-70
2022/11/25 14:40:28;;;;;;;4.83;1.20;;;;;;;;;;5031285;28;20041;-71
2022/11/25 14:43:03;;;;;;;3.47;1.40;;;;;;;;;;5039903;28;20312;-74
2022/11/25 14:45:34;;;;;;;4.57;1.15;;;;;;;;;;5037656;28;20447;-73
2022/11/25 14:48:14;;;;;;;3.35;1.27;;;;;;;;;;5034330;28;20048;-73
2022/11/25 14:50:53;;;;;;;4.75;1.20;;;;;;;;;;5035673;28;20136;-75
2022/11/25 14:53:19;;;;;;;3.67;1.40;;;;;;;;;;5032696;28;20049;-72
2022/11/25 14:55:47;;;;;;;5.07;2.47;;;;;;;;;;5039366;28;20055;-71
2022/11/25 14:58:14;;;;;;;3.53;1.10;;;;;;;;;;5030674;28;20879;-72
2022/11/25 15:01:06;;;;;;;8.18;1.45;;;;;;;;;;5032539;28;20142;-74
2022/11/25 15:03:32;;;;;;;3.72;1.10;;;;;;;;;;5035331;28;20049;-76
2022/11/25 15:06:05;;;;;;;3.70;1.00;;;;;;;;;;5036891;28;20182;-73
2022/11/25 15:08:43;;;;;;;2.25;1.00;;;;;;;;;;5014790;28;20731;-75
2022/11/25 15:11:17;;;;;;;2.70;1.05;;;;;;;;;;5038434;28;20815;-75
2022/11/25 15:13:50;;;;;;;3.05;0.90;;;;;;;;;;5014375;28;20060;-72
2022/11/25 15:16:19;;;;;;;1.77;1.00;;;;;;;;;;5033875;28;20400;-72
2022/11/25 15:18:47;;;;;;;8.90;0.98;;;;;;;;;;5030637;28;20567;-78
2022/11/25 15:21:16;;;;;;;2.55;1.00;;;;;;;;;;5031736;28;20079;-71